sensor_id;sensor_type;location;lat;lon;timestamp;pressure;altitude;pressure_sealevel;temperature;humidity
48424;BME280;34232;42.502;26.014;2023-04-19T00:00:32;99585.47;;;13.43;100.00
48424;BME280;34232;42.502;26.014;2023-04-19T00:02:59;99592.59;;;13.43;100.00
48424;BME280;34232;42.502;26.014;2023-04-19T00:05:24;99592.28;;;13.46;100.00
48424;BME280;34232;42.502;26.014;2023-04-19T00:07:50;99579.69;;;13.48;100.00
48424;BME280;34232;42.502;26.014;2023-04-19T00:10:15;99591.28;;;13.47;100.00
48424;BME280;34232;42.502;26.014;2023-04-19T00:12:40;99584.19;;;13.47;100.00
48424;BME280;34232;42.502;26.014;2023-04-19T00:15:06;99581.03;;;13.44;100.00
48424;BME280;34232;42.502;26.014;2023-04-19T00:17:32;99579.81;;;13.38;100.00
48424;BME280;34232;42.502;26.014;2023-04-19T00:19:57;99569.63;;;13.43;100.00
48424;BME280;34232;42.502;26.014;2023-04-19T00:22:23;99570.44;;;13.44;100.00
48424;BME280;34232;42.502;26.014;2023-04-19T00:24:48;99567.13;;;13.42;100.00
48424;BME280;34232;42.502;26.014;2023-04-19T00:27:13;99578.16;;;13.37;100.00
48424;BME280;34232;42.502;26.014;2023-04-19T00:29:39;99573.50;;;13.31;100.00
48424;BME280;34232;42.502;26.014;2023-04-19T00:32:04;99574.66;;;13.28;100.00
48424;BME280;34232;42.502;26.014;2023-04-19T00:34:30;99570.03;;;13.30;100.00
48424;BME280;34232;42.502;26.014;2023-04-19T00:36:55;99559.81;;;13.36;100.00
48424;BME280;34232;42.502;26.014;2023-04-19T00:39:20;99562.00;;;13.40;100.00
48424;BME280;34232;42.502;26.014;2023-04-19T00:41:46;99560.53;;;13.46;100.00
48424;BME280;34232;42.502;26.014;2023-04-19T00:44:11;99562.84;;;13.49;100.00
48424;BME280;34232;42.502;26.014;2023-04-19T00:46:36;99563.84;;;13.48;100.00
48424;BME280;34232;42.502;26.014;2023-04-19T00:49:02;99562.22;;;13.47;99.77
48424;BME280;34232;42.502;26.014;2023-04-19T00:51:27;99554.81;;;13.32;100.00
48424;BME280;34232;42.502;26.014;2023-04-19T00:53:52;99559.81;;;13.36;100.00
48424;BME280;34232;42.502;26.014;2023-04-19T00:56:18;99554.72;;;13.42;100.00
48424;BME280;34232;42.502;26.014;2023-04-19T00:58:45;99565.84;;;13.46;100.00
48424;BME280;34232;42.502;26.014;2023-04-19T01:01:11;99558.53;;;13.48;100.00
48424;BME280;34232;42.502;26.014;2023-04-19T01:03:37;99561.88;;;13.50;100.00
48424;BME280;34232;42.502;26.014;2023-04-19T01:06:11;99558.25;;;13.51;100.00
48424;BME280;34232;42.502;26.014;2023-04-19T01:08:36;99561.03;;;13.49;100.00
48424;BME280;34232;42.502;26.014;2023-04-19T01:11:02;99557.75;;;13.47;100.00
48424;BME280;34232;42.502;26.014;2023-04-19T01:13:27;99551.28;;;13.50;99.86
48424;BME280;34232;42.502;26.014;2023-04-19T01:15:53;99552.94;;;13.51;99.86
48424;BME280;34232;42.502;26.014;2023-04-19T01:18:18;99546.00;;;13.50;100.00
48424;BME280;34232;42.502;26.014;2023-04-19T01:20:44;99544.84;;;13.52;100.00
48424;BME280;34232;42.502;26.014;2023-04-19T01:23:09;99542.22;;;13.52;99.52
48424;BME280;34232;42.502;26.014;2023-04-19T01:25:37;99537.41;;;13.48;99.51
48424;BME280;34232;42.502;26.014;2023-04-19T01:28:03;99537.91;;;13.51;99.89
48424;BME280;34232;42.502;26.014;2023-04-19T01:30:28;99532.63;;;13.51;99.95
48424;BME280;34232;42.502;26.014;2023-04-19T01:32:53;99526.50;;;13.51;100.00
48424;BME280;34232;42.502;26.014;2023-04-19T01:35:19;99522.47;;;13.39;100.00
48424;BME280;34232;42.502;26.014;2023-04-19T01:37:45;99525.13;;;13.39;100.00
48424;BME280;34232;42.502;26.014;2023-04-19T01:40:10;99526.16;;;13.46;100.00
48424;BME280;34232;42.502;26.014;2023-04-19T01:42:36;99531.78;;;13.51;99.86
48424;BME280;34232;42.502;26.014;2023-04-19T01:45:01;99532.78;;;13.50;99.27
48424;BME280;34232;42.502;26.014;2023-04-19T01:47:26;99531.78;;;13.51;98.95
48424;BME280;34232;42.502;26.014;2023-04-19T01:49:52;99522.88;;;13.52;99.39
48424;BME280;34232;42.502;26.014;2023-04-19T01:52:17;99534.28;;;13.52;99.75
48424;BME280;34232;42.502;26.014;2023-04-19T01:54:43;99528.84;;;13.54;99.72
48424;BME280;34232;42.502;26.014;2023-04-19T01:57:08;99524.22;;;13.56;99.21
48424;BME280;34232;42.502;26.014;2023-04-19T01:59:33;99523.72;;;13.52;99.56
48424;BME280;34232;42.502;26.014;2023-04-19T02:01:58;99523.56;;;13.54;100.00
48424;BME280;34232;42.502;26.014;2023-04-19T02:04:24;99524.22;;;13.56;100.00
48424;BME280;34232;42.502;26.014;2023-04-19T02:06:49;99533.16;;;13.55;99.29
48424;BME280;34232;42.502;26.014;2023-04-19T02:09:14;99527.84;;;13.55;98.71
48424;BME280;34232;42.502;26.014;2023-04-19T02:11:40;99527.69;;;13.56;98.46
48424;BME280;34232;42.502;26.014;2023-04-19T02:14:05;99527.84;;;13.55;98.60
48424;BME280;34232;42.502;26.014;2023-04-19T02:16:30;99527.03;;;13.54;98.61
48424;BME280;34232;42.502;26.014;2023-04-19T02:18:55;99521.91;;;13.53;98.21
48424;BME280;34232;42.502;26.014;2023-04-19T02:21:21;99526.19;;;13.54;98.37
48424;BME280;34232;42.502;26.014;2023-04-19T02:23:46;99521.72;;;13.54;98.66
48424;BME280;34232;42.502;26.014;2023-04-19T02:26:11;99528.84;;;13.54;98.93
48424;BME280;34232;42.502;26.014;2023-04-19T02:28:37;99523.56;;;13.54;98.67
48424;BME280;34232;42.502;26.014;2023-04-19T02:31:03;99521.91;;;13.53;98.05
48424;BME280;34232;42.502;26.014;2023-04-19T02:33:29;99519.25;;;13.53;98.28
48424;BME280;34232;42.502;26.014;2023-04-19T02:35:55;99525.53;;;13.52;98.68
48424;BME280;34232;42.502;26.014;2023-04-19T02:38:20;99520.53;;;13.49;98.79
48424;BME280;34232;42.502;26.014;2023-04-19T02:40:45;99516.56;;;13.45;99.15
48424;BME280;34232;42.502;26.014;2023-04-19T02:43:10;99521.34;;;13.41;98.84
48424;BME280;34232;42.502;26.014;2023-04-19T02:45:36;99522.19;;;13.42;99.02
48424;BME280;34232;42.502;26.014;2023-04-19T02:48:01;99517.03;;;13.40;99.04
48424;BME280;34232;42.502;26.014;2023-04-19T02:50:26;99515.22;;;13.41;99.28
48424;BME280;34232;42.502;26.014;2023-04-19T02:52:52;99511.91;;;13.39;99.01
48424;BME280;34232;42.502;26.014;2023-04-19T02:55:17;99516.53;;;13.37;99.22
48424;BME280;34232;42.502;26.014;2023-04-19T02:57:43;99509.41;;;13.37;100.00
48424;BME280;34232;42.502;26.014;2023-04-19T03:00:08;99519.16;;;13.37;100.00
48424;BME280;34232;42.502;26.014;2023-04-19T03:02:34;99518.84;;;13.40;100.00
48424;BME280;34232;42.502;26.014;2023-04-19T03:04:59;99515.22;;;13.41;99.65
48424;BME280;34232;42.502;26.014;2023-04-19T03:07:25;99527.47;;;13.42;99.16
48424;BME280;34232;42.502;26.014;2023-04-19T03:09:50;99529.13;;;13.43;98.96
48424;BME280;34232;42.502;26.014;2023-04-19T03:12:15;99527.47;;;13.42;99.31
48424;BME280;34232;42.502;26.014;2023-04-19T03:14:40;99522.19;;;13.42;99.03
48424;BME280;34232;42.502;26.014;2023-04-19T03:17:06;99531.09;;;13.41;99.46
48424;BME280;34232;42.502;26.014;2023-04-19T03:19:31;99524.16;;;13.40;99.46
48424;BME280;34232;42.502;26.014;2023-04-19T03:21:56;99527.47;;;13.42;99.88
48424;BME280;34232;42.502;26.014;2023-04-19T03:24:30;99522.19;;;13.42;99.63
48424;BME280;34232;42.502;26.014;2023-04-19T03:26:56;99527.16;;;13.45;99.37
48424;BME280;34232;42.502;26.014;2023-04-19T03:29:21;99535.75;;;13.47;99.18
48424;BME280;34232;42.502;26.014;2023-04-19T03:31:47;99532.09;;;13.48;99.45
48424;BME280;34232;42.502;26.014;2023-04-19T03:34:12;99526.47;;;13.43;99.60
48424;BME280;34232;42.502;26.014;2023-04-19T03:36:38;99523.53;;;13.46;99.95
48424;BME280;34232;42.502;26.014;2023-04-19T03:39:03;99526.81;;;13.48;100.00
48424;BME280;34232;42.502;26.014;2023-04-19T03:41:28;99528.81;;;13.46;100.00
48424;BME280;34232;42.502;26.014;2023-04-19T03:43:53;99525.84;;;13.49;100.00
48424;BME280;34232;42.502;26.014;2023-04-19T03:46:19;99523.19;;;13.49;100.00
48424;BME280;34232;42.502;26.014;2023-04-19T03:48:44;99527.34;;;13.51;99.94
48424;BME280;34232;42.502;26.014;2023-04-19T03:51:09;99530.13;;;13.50;100.00
48424;BME280;34232;42.502;26.014;2023-04-19T03:53:35;99524.16;;;13.48;99.51
48424;BME280;34232;42.502;26.014;2023-04-19T03:56:01;99524.84;;;13.50;99.95
48424;BME280;34232;42.502;26.014;2023-04-19T03:58:26;99523.84;;;13.51;99.86
48424;BME280;34232;42.502;26.014;2023-04-19T04:00:51;99522.88;;;13.52;99.47
48424;BME280;34232;42.502;26.014;2023-04-19T04:03:17;99519.25;;;13.53;99.58
48424;BME280;34232;42.502;26.014;2023-04-19T04:05:43;99519.25;;;13.53;99.51
48424;BME280;34232;42.502;26.014;2023-04-19T04:08:08;99527.03;;;13.54;99.58
48424;BME280;34232;42.502;26.014;2023-04-19T04:10:33;99521.72;;;13.54;99.54
48424;BME280;34232;42.502;26.014;2023-04-19T04:12:59;99515.31;;;13.57;99.07
48424;BME280;34232;42.502;26.014;2023-04-19T04:15:24;99515.16;;;13.58;98.80
48424;BME280;34232;42.502;26.014;2023-04-19T04:17:49;99509.19;;;13.56;99.13
48424;BME280;34232;42.502;26.014;2023-04-19T04:20:15;99516.13;;;13.57;99.08
48424;BME280;34232;42.502;26.014;2023-04-19T04:22:44;99513.03;;;13.62;98.42
48424;BME280;34232;42.502;26.014;2023-04-19T04:25:12;99516.66;;;13.61;98.87
48424;BME280;34232;42.502;26.014;2023-04-19T04:27:39;99517.97;;;13.65;99.25
48424;BME280;34232;42.502;26.014;2023-04-19T04:30:05;99514.69;;;13.63;99.24
48424;BME280;34232;42.502;26.014;2023-04-19T04:32:31;99514.34;;;13.66;99.15
48424;BME280;34232;42.502;26.014;2023-04-19T04:34:59;99517.19;;;13.73;98.96
48424;BME280;34232;42.502;26.014;2023-04-19T04:37:25;99517.84;;;13.75;98.66
48424;BME280;34232;42.502;26.014;2023-04-19T04:39:50;99523.72;;;13.52;98.33
48424;BME280;34232;42.502;26.014;2023-04-19T04:42:15;99519.69;;;13.40;98.62
48424;BME280;34232;42.502;26.014;2023-04-19T04:44:41;99526.16;;;13.46;99.37
48424;BME280;34232;42.502;26.014;2023-04-19T04:47:06;99524.44;;;13.37;99.24
48424;BME280;34232;42.502;26.014;2023-04-19T04:49:32;99519.16;;;13.37;100.00
48424;BME280;34232;42.502;26.014;2023-04-19T04:51:57;99522.19;;;13.42;100.00
48424;BME280;34232;42.502;26.014;2023-04-19T04:54:22;99522.78;;;13.36;100.00
48424;BME280;34232;42.502;26.014;2023-04-19T04:56:48;99523.16;;;13.41;100.00
48424;BME280;34232;42.502;26.014;2023-04-19T04:59:13;99523.56;;;13.54;100.00
48424;BME280;34232;42.502;26.014;2023-04-19T05:01:38;99520.22;;;13.52;100.00
48424;BME280;34232;42.502;26.014;2023-04-19T05:04:04;99530.66;;;13.53;100.00
48424;BME280;34232;42.502;26.014;2023-04-19T05:06:29;99529.38;;;13.65;100.00
48424;BME280;34232;42.502;26.014;2023-04-19T05:08:55;99529.59;;;13.72;100.00
48424;BME280;34232;42.502;26.014;2023-04-19T05:11:20;99528.91;;;13.62;99.77
48424;BME280;34232;42.502;26.014;2023-04-19T05:13:45;99532.91;;;13.74;100.00
48424;BME280;34232;42.502;26.014;2023-04-19T05:16:10;99529.81;;;13.87;100.00
48424;BME280;34232;42.502;26.014;2023-04-19T05:18:36;99533.31;;;13.95;100.00
48424;BME280;34232;42.502;26.014;2023-04-19T05:21:01;99530.00;;;14.01;98.52
48424;BME280;34232;42.502;26.014;2023-04-19T05:23:26;99533.34;;;14.04;97.07
48424;BME280;34232;42.502;26.014;2023-04-19T05:25:52;99536.66;;;14.06;95.82
48424;BME280;34232;42.502;26.014;2023-04-19T05:28:17;99536.84;;;14.12;94.56
48424;BME280;34232;42.502;26.014;2023-04-19T05:30:42;99540.63;;;14.18;93.99
48424;BME280;34232;42.502;26.014;2023-04-19T05:33:08;99540.97;;;14.15;93.97
48424;BME280;34232;42.502;26.014;2023-04-19T05:35:33;99541.16;;;14.21;94.55
48424;BME280;34232;42.502;26.014;2023-04-19T05:37:58;99541.97;;;14.22;94.92
48424;BME280;34232;42.502;26.014;2023-04-19T05:40:23;99541.00;;;14.23;94.54
48424;BME280;34232;42.502;26.014;2023-04-19T05:42:49;99544.63;;;14.30;94.07
48424;BME280;34232;42.502;26.014;2023-04-19T05:45:14;99544.31;;;14.33;94.08
48424;BME280;34232;42.502;26.014;2023-04-19T05:47:40;99542.34;;;14.35;93.58
48424;BME280;34232;42.502;26.014;2023-04-19T05:50:06;99540.06;;;14.40;93.32
48424;BME280;34232;42.502;26.014;2023-04-19T05:52:31;99553.63;;;14.45;92.92
48424;BME280;34232;42.502;26.014;2023-04-19T05:54:57;99543.03;;;14.45;91.04
48424;BME280;34232;42.502;26.014;2023-04-19T05:57:22;99538.09;;;14.42;90.51
48424;BME280;34232;42.502;26.014;2023-04-19T05:59:47;99540.38;;;14.45;90.20
48424;BME280;34232;42.502;26.014;2023-04-19T06:02:13;99541.72;;;14.49;90.29
48424;BME280;34232;42.502;26.014;2023-04-19T06:04:38;99542.72;;;14.48;90.31
48424;BME280;34232;42.502;26.014;2023-04-19T06:07:03;99548.84;;;14.49;90.95
48424;BME280;34232;42.502;26.014;2023-04-19T06:09:28;99535.75;;;14.47;90.22
48424;BME280;34232;42.502;26.014;2023-04-19T06:11:54;99537.09;;;14.51;90.30
48424;BME280;34232;42.502;26.014;2023-04-19T06:14:20;99540.75;;;14.58;89.62
48424;BME280;34232;42.502;26.014;2023-04-19T06:16:46;99540.91;;;14.57;90.08
48424;BME280;34232;42.502;26.014;2023-04-19T06:19:11;99546.53;;;14.62;89.47
48424;BME280;34232;42.502;26.014;2023-04-19T06:21:36;99537.41;;;14.64;90.35
48424;BME280;34232;42.502;26.014;2023-04-19T06:24:02;99540.09;;;14.73;90.48
48424;BME280;34232;42.502;26.014;2023-04-19T06:26:27;99536.78;;;14.70;86.31
48424;BME280;34232;42.502;26.014;2023-04-19T06:28:52;99549.38;;;14.77;86.70
48424;BME280;34232;42.502;26.014;2023-04-19T06:31:18;99541.06;;;14.80;87.68
48424;BME280;34232;42.502;26.014;2023-04-19T06:33:43;99545.38;;;14.89;89.62
48424;BME280;34232;42.502;26.014;2023-04-19T06:36:09;99555.00;;;14.90;87.92
48424;BME280;34232;42.502;26.014;2023-04-19T06:38:35;99548.00;;;14.97;87.03
48424;BME280;34232;42.502;26.014;2023-04-19T06:41:02;99558.31;;;15.08;85.59
48424;BME280;34232;42.502;26.014;2023-04-19T06:43:27;99549.66;;;15.14;86.11
48424;BME280;34232;42.502;26.014;2023-04-19T06:45:56;99546.19;;;15.22;84.46
48424;BME280;34232;42.502;26.014;2023-04-19T06:48:22;99551.63;;;15.28;83.21
48424;BME280;34232;42.502;26.014;2023-04-19T06:50:47;99556.91;;;15.36;83.05
48424;BME280;34232;42.502;26.014;2023-04-19T06:53:12;99555.94;;;15.37;85.68
48424;BME280;34232;42.502;26.014;2023-04-19T06:55:37;99558.22;;;15.49;85.20
48424;BME280;34232;42.502;26.014;2023-04-19T06:58:03;99558.88;;;15.59;86.70
48424;BME280;34232;42.502;26.014;2023-04-19T07:00:28;99552.25;;;15.55;82.11
48424;BME280;34232;42.502;26.014;2023-04-19T07:02:53;99563.84;;;15.62;83.36
48424;BME280;34232;42.502;26.014;2023-04-19T07:05:19;99566.00;;;15.66;80.76
48424;BME280;34232;42.502;26.014;2023-04-19T07:07:44;99569.44;;;15.75;79.93
48424;BME280;34232;42.502;26.014;2023-04-19T07:10:09;99561.13;;;15.78;79.99
48424;BME280;34232;42.502;26.014;2023-04-19T07:12:36;99561.94;;;15.87;79.98
48424;BME280;34232;42.502;26.014;2023-04-19T07:15:02;99570.84;;;16.02;81.09
48424;BME280;34232;42.502;26.014;2023-04-19T07:17:27;99570.25;;;16.15;80.05
48424;BME280;34232;42.502;26.014;2023-04-19T07:19:52;99572.25;;;16.21;78.24
48424;BME280;34232;42.502;26.014;2023-04-19T07:22:18;99567.84;;;16.36;78.63
48424;BME280;34232;42.502;26.014;2023-04-19T07:24:43;99568.78;;;16.43;76.41
48424;BME280;34232;42.502;26.014;2023-04-19T07:27:08;99576.34;;;16.54;74.90
48424;BME280;34232;42.502;26.014;2023-04-19T07:29:34;99573.97;;;16.59;75.53
48424;BME280;34232;42.502;26.014;2023-04-19T07:31:59;99579.00;;;16.54;73.67
48424;BME280;34232;42.502;26.014;2023-04-19T07:34:25;99581.66;;;16.54;74.73
48424;BME280;34232;42.502;26.014;2023-04-19T07:36:51;99578.69;;;16.49;72.75
48424;BME280;34232;42.502;26.014;2023-04-19T07:39:16;99587.69;;;16.48;74.12
48424;BME280;34232;42.502;26.014;2023-04-19T07:41:41;99589.34;;;16.49;71.38
48424;BME280;34232;42.502;26.014;2023-04-19T07:44:06;99585.69;;;16.50;72.95
48424;BME280;34232;42.502;26.014;2023-04-19T07:46:32;99591.34;;;16.47;73.02
48424;BME280;34232;42.502;26.014;2023-04-19T07:48:57;99589.69;;;16.46;72.66
48424;BME280;34232;42.502;26.014;2023-04-19T07:51:22;99590.75;;;16.37;72.14
48424;BME280;34232;42.502;26.014;2023-04-19T07:53:48;99594.25;;;16.29;71.68
48424;BME280;34232;42.502;26.014;2023-04-19T07:56:14;99593.44;;;16.29;73.27
48424;BME280;34232;42.502;26.014;2023-04-19T07:58:39;99590.81;;;16.21;71.26
48424;BME280;34232;42.502;26.014;2023-04-19T08:01:05;99598.78;;;16.21;71.44
48424;BME280;34232;42.502;26.014;2023-04-19T08:03:32;99605.84;;;16.05;69.83
48424;BME280;34232;42.502;26.014;2023-04-19T08:05:59;99601.53;;;16.04;69.92
48424;BME280;34232;42.502;26.014;2023-04-19T08:08:24;99596.91;;;15.98;70.09
48424;BME280;34232;42.502;26.014;2023-04-19T08:10:52;99603.88;;;15.99;70.56
48424;BME280;34232;42.502;26.014;2023-04-19T08:13:19;99599.53;;;16.06;72.24
48424;BME280;34232;42.502;26.014;2023-04-19T08:15:44;99600.34;;;16.07;68.61
48424;BME280;34232;42.502;26.014;2023-04-19T08:18:10;99600.22;;;16.00;69.45
48424;BME280;34232;42.502;26.014;2023-04-19T08:20:35;99606.47;;;16.07;71.03
48424;BME280;34232;42.502;26.014;2023-04-19T08:23:00;99599.81;;;16.12;70.58
48424;BME280;34232;42.502;26.014;2023-04-19T08:25:26;99599.66;;;16.13;71.06
48424;BME280;34232;42.502;26.014;2023-04-19T08:27:55;99604.00;;;16.06;71.28
48424;BME280;34232;42.502;26.014;2023-04-19T08:30:21;99601.88;;;16.01;67.04
48424;BME280;34232;42.502;26.014;2023-04-19T08:32:46;99602.19;;;15.98;68.46
48424;BME280;34232;42.502;26.014;2023-04-19T08:35:12;99600.53;;;15.97;69.42
48424;BME280;34232;42.502;26.014;2023-04-19T08:37:37;99605.38;;;15.94;68.46
48424;BME280;34232;42.502;26.014;2023-04-19T08:40:05;99603.53;;;15.94;69.15
48424;BME280;34232;42.502;26.014;2023-04-19T08:42:30;99596.91;;;15.98;68.04
48424;BME280;34232;42.502;26.014;2023-04-19T08:44:56;99603.19;;;15.97;70.22
48424;BME280;34232;42.502;26.014;2023-04-19T08:47:24;99596.22;;;15.96;68.68
48424;BME280;34232;42.502;26.014;2023-04-19T08:49:49;99596.75;;;15.92;66.03
48424;BME280;34232;42.502;26.014;2023-04-19T08:52:15;99592.25;;;16.00;68.02
48424;BME280;34232;42.502;26.014;2023-04-19T08:54:41;99594.22;;;16.06;68.31
48424;BME280;34232;42.502;26.014;2023-04-19T08:57:07;99595.16;;;16.14;68.45
48424;BME280;34232;42.502;26.014;2023-04-19T08:59:33;99594.13;;;16.23;69.59
48424;BME280;34232;42.502;26.014;2023-04-19T09:02:01;99597.56;;;16.31;68.52
48424;BME280;34232;42.502;26.014;2023-04-19T09:04:27;99596.41;;;16.34;67.65
48424;BME280;34232;42.502;26.014;2023-04-19T09:06:52;99602.31;;;16.44;66.39
48424;BME280;34232;42.502;26.014;2023-04-19T09:09:18;99601.63;;;16.50;68.90
48424;BME280;34232;42.502;26.014;2023-04-19T09:11:44;99597.25;;;16.57;70.57
48424;BME280;34232;42.502;26.014;2023-04-19T09:14:10;99607.34;;;16.62;69.48
48424;BME280;34232;42.502;26.014;2023-04-19T09:16:35;99600.47;;;16.75;64.75
48424;BME280;34232;42.502;26.014;2023-04-19T09:19:02;99609.41;;;16.83;66.60
48424;BME280;34232;42.502;26.014;2023-04-19T09:21:30;99605.09;;;16.82;66.28
48424;BME280;34232;42.502;26.014;2023-04-19T09:23:56;99606.50;;;16.69;63.66
48424;BME280;34232;42.502;26.014;2023-04-19T09:26:22;99603.53;;;16.64;64.46
48424;BME280;34232;42.502;26.014;2023-04-19T09:29:00;99605.19;;;16.65;66.01
48424;BME280;34232;42.502;26.014;2023-04-19T09:31:26;99607.22;;;16.63;65.34
48424;BME280;34232;42.502;26.014;2023-04-19T09:33:52;99602.72;;;16.64;65.81
48424;BME280;34232;42.502;26.014;2023-04-19T09:36:31;99600.81;;;16.72;66.89
48424;BME280;34232;42.502;26.014;2023-04-19T09:38:57;99602.47;;;16.73;64.35
48424;BME280;34232;42.502;26.014;2023-04-19T09:41:23;99604.75;;;16.85;66.02
48424;BME280;34232;42.502;26.014;2023-04-19T09:43:48;99604.41;;;16.88;64.57
48424;BME280;34232;42.502;26.014;2023-04-19T09:48:54;99607.41;;;16.85;63.20
48424;BME280;34232;42.502;26.014;2023-04-19T09:51:20;99610.44;;;16.73;62.73
48424;BME280;34232;42.502;26.014;2023-04-19T09:53:45;99598.00;;;16.74;64.81
48424;BME280;34232;42.502;26.014;2023-04-19T09:56:11;99597.72;;;16.61;65.25
48424;BME280;34232;42.502;26.014;2023-04-19T09:58:36;99596.56;;;16.63;66.21
48424;BME280;34232;42.502;26.014;2023-04-19T10:01:02;99601.88;;;16.63;65.81
48424;BME280;34232;42.502;26.014;2023-04-19T10:03:28;99604.69;;;16.62;64.68
48424;BME280;34232;42.502;26.014;2023-04-19T10:05:54;99603.69;;;16.71;65.59
48424;BME280;34232;42.502;26.014;2023-04-19T10:08:19;99603.09;;;16.84;66.11
48424;BME280;34232;42.502;26.014;2023-04-19T10:10:44;99598.41;;;16.86;63.03
48424;BME280;34232;42.502;26.014;2023-04-19T10:13:11;99604.25;;;16.81;63.85
48424;BME280;34232;42.502;26.014;2023-04-19T10:15:37;99601.53;;;16.89;65.61
48424;BME280;34232;42.502;26.014;2023-04-19T10:18:03;99603.66;;;16.94;65.02
48424;BME280;34232;42.502;26.014;2023-04-19T10:20:29;99598.00;;;16.97;65.85
48424;BME280;34232;42.502;26.014;2023-04-19T10:22:56;99606.28;;;17.02;62.49
48424;BME280;34232;42.502;26.014;2023-04-19T10:25:26;99598.47;;;17.00;64.01
48424;BME280;34232;42.502;26.014;2023-04-19T10:27:52;99607.53;;;17.06;64.16
48424;BME280;34232;42.502;26.014;2023-04-19T10:30:21;99604.25;;;17.04;64.30
48424;BME280;34232;42.502;26.014;2023-04-19T10:32:59;99603.97;;;16.99;63.17
48424;BME280;34232;42.502;26.014;2023-04-19T10:35:27;99604.00;;;16.91;61.51
48424;BME280;34232;42.502;26.014;2023-04-19T10:38:01;99604.31;;;16.96;61.35
48424;BME280;34232;42.502;26.014;2023-04-19T10:43:13;99598.94;;;16.81;62.29
48424;BME280;34232;42.502;26.014;2023-04-19T10:45:38;99604.41;;;16.88;61.35
48424;BME280;34232;42.502;26.014;2023-04-19T10:48:04;99603.78;;;17.00;62.83
48424;BME280;34232;42.502;26.014;2023-04-19T10:50:29;99605.88;;;17.05;61.78
48424;BME280;34232;42.502;26.014;2023-04-19T10:52:54;99609.19;;;17.07;60.60
48424;BME280;34232;42.502;26.014;2023-04-19T10:55:20;99615.66;;;17.12;59.35
48424;BME280;34232;42.502;26.014;2023-04-19T10:58:04;99601.09;;;17.23;56.50
48424;BME280;34232;42.502;26.014;2023-04-19T11:00:29;99603.59;;;17.39;60.07
48424;BME280;34232;42.502;26.014;2023-04-19T11:02:57;99601.88;;;17.46;57.36
48424;BME280;34232;42.502;26.014;2023-04-19T11:05:22;99605.06;;;17.57;55.92
48424;BME280;34232;42.502;26.014;2023-04-19T11:07:47;99606.19;;;17.47;52.76
48424;BME280;34232;42.502;26.014;2023-04-19T11:10:13;99594.53;;;17.48;54.62
48424;BME280;34232;42.502;26.014;2023-04-19T11:12:51;99603.34;;;17.49;55.38
48424;BME280;34232;42.502;26.014;2023-04-19T11:15:16;99601.69;;;17.48;55.06
48424;BME280;34232;42.502;26.014;2023-04-19T11:17:48;99605.72;;;17.44;54.73
48424;BME280;34232;42.502;26.014;2023-04-19T11:20:13;99601.81;;;17.17;54.77
48424;BME280;34232;42.502;26.014;2023-04-19T11:22:43;99603.47;;;17.18;56.71
48424;BME280;34232;42.502;26.014;2023-04-19T11:27:37;99602.09;;;17.22;56.53
48424;BME280;34232;42.502;26.014;2023-04-19T11:30:07;99605.19;;;17.11;58.55
48424;BME280;34232;42.502;26.014;2023-04-19T11:32:33;99607.94;;;17.03;58.47
48424;BME280;34232;42.502;26.014;2023-04-19T11:35:07;99606.72;;;17.05;60.61
48424;BME280;34232;42.502;26.014;2023-04-19T11:37:34;99600.47;;;16.98;57.80
48424;BME280;34232;42.502;26.014;2023-04-19T11:40:00;99604.97;;;16.98;58.37
48424;BME280;34232;42.502;26.014;2023-04-19T11:42:25;99606.97;;;16.96;57.89
48424;BME280;34232;42.502;26.014;2023-04-19T11:44:51;99608.09;;;17.01;59.45
48424;BME280;34232;42.502;26.014;2023-04-19T11:47:16;99599.78;;;17.04;62.32
48424;BME280;34232;42.502;26.014;2023-04-19T11:49:42;99605.75;;;16.84;59.80
48424;BME280;34232;42.502;26.014;2023-04-19T11:52:07;99602.44;;;16.82;61.87
48424;BME280;34232;42.502;26.014;2023-04-19T11:54:35;99599.28;;;16.78;62.28
48424;BME280;34232;42.502;26.014;2023-04-19T11:57:01;99596.13;;;16.83;61.11
48424;BME280;34232;42.502;26.014;2023-04-19T11:59:28;99596.13;;;16.83;62.73
48424;BME280;34232;42.502;26.014;2023-04-19T12:01:53;99599.72;;;16.67;62.40
48424;BME280;34232;42.502;26.014;2023-04-19T12:04:18;99591.56;;;16.60;58.46
48424;BME280;34232;42.502;26.014;2023-04-19T12:06:44;99588.34;;;16.50;60.62
48424;BME280;34232;42.502;26.014;2023-04-19T12:09:09;99592.31;;;16.54;63.61
48424;BME280;34232;42.502;26.014;2023-04-19T12:11:46;99584.38;;;16.46;62.17
48424;BME280;34232;42.502;26.014;2023-04-19T12:14:14;99585.78;;;16.57;64.50
48424;BME280;34232;42.502;26.014;2023-04-19T12:16:40;99587.97;;;16.53;64.71
48424;BME280;34232;42.502;26.014;2023-04-19T12:19:12;99583.59;;;16.60;63.98
48424;BME280;34232;42.502;26.014;2023-04-19T12:21:38;99590.25;;;16.56;62.32
48424;BME280;34232;42.502;26.014;2023-04-19T12:24:03;99583.13;;;16.65;62.02
48424;BME280;34232;42.502;26.014;2023-04-19T12:26:29;99575.78;;;16.67;62.55
48424;BME280;34232;42.502;26.014;2023-04-19T12:28:55;99583.59;;;16.68;63.08
48424;BME280;34232;42.502;26.014;2023-04-19T12:31:20;99582.88;;;16.74;61.95
48424;BME280;34232;42.502;26.014;2023-04-19T12:33:47;99583.25;;;16.71;61.54
48424;BME280;34232;42.502;26.014;2023-04-19T12:36:12;99575.88;;;16.73;60.91
48424;BME280;34232;42.502;26.014;2023-04-19T12:38:37;99575.28;;;16.71;62.29
48424;BME280;34232;42.502;26.014;2023-04-19T12:41:03;99579.22;;;16.75;62.80
48424;BME280;34232;42.502;26.014;2023-04-19T12:43:28;99577.19;;;16.77;61.34
48424;BME280;34232;42.502;26.014;2023-04-19T12:45:56;99581.81;;;16.84;60.94
48424;BME280;34232;42.502;26.014;2023-04-19T12:48:22;99578.44;;;16.90;58.56